Time;durP1;ratioP1;P1;durP2;ratioP2;P2;SDS_P1;SDS_P2;PMS_P1;PMS_P2;Temp;Humidity;BMP_temperature;BMP_pressure;BME280_temperature;BME280_humidity;BME280_pressure;Samples;Min_cycle;Max_cycle;Signal;HPM_P1;HPM_P2
2024/04/17 00:00:15;;;;;;;0.60;0.60;;;;;;;5.21;99.79;95928.72;29396;218;63005;-92
2024/04/17 00:00:48;;;;;;;0.60;0.60;;;;;;;5.22;100.00;95945.66;29395;210;64013;-92
2024/04/17 00:01:22;;;;;;;0.60;0.60;;;;;;;5.20;100.00;95931.72;29396;218;63005;-92
2024/04/17 00:01:53;;;;;;;0.60;0.60;;;;;;;5.16;100.00;95942.25;29396;220;63009;-90
2024/04/17 00:02:28;;;;;;;0.60;0.60;;;;;;;5.10;100.00;95931.81;29396;211;63005;-92
2024/04/17 00:02:59;;;;;;;0.60;0.60;;;;;;;5.14;100.00;95938.22;29396;289;63009;-91
2024/04/17 00:03:31;;;;;;;0.60;0.60;;;;;;;5.10;100.00;95937.19;29396;196;63004;-92
2024/04/17 00:04:05;;;;;;;0.55;0.55;;;;;;;5.10;100.00;95932.59;29396;441;63009;-90
2024/04/17 00:04:36;;;;;;;0.60;0.60;;;;;;;5.11;100.00;95936.09;29396;231;63004;-90
2024/04/17 00:05:14;;;;;;;0.60;0.60;;;;;;;5.11;100.00;95938.78;29395;202;64013;-94
2024/04/17 00:05:47;;;;;;;0.60;0.60;;;;;;;5.07;100.00;95938.53;29396;213;63004;-91
2024/04/17 00:06:19;;;;;;;0.60;0.60;;;;;;;5.02;100.00;95934.00;29396;218;63008;-91
2024/04/17 00:06:50;;;;;;;0.60;0.60;;;;;;;4.92;100.00;95933.28;29395;231;64009;-90
2024/04/17 00:07:21;;;;;;;0.60;0.60;;;;;;;4.98;100.00;95932.97;29396;239;63009;-89
2024/04/17 00:07:53;;;;;;;0.60;0.60;;;;;;;5.08;100.00;95933.97;29396;216;63005;-90
2024/04/17 00:08:25;;;;;;;0.60;0.60;;;;;;;5.14;100.00;95939.03;29396;232;63009;-88
2024/04/17 00:08:56;;;;;;;0.60;0.60;;;;;;;5.14;100.00;95936.34;29396;253;63005;-89
2024/04/17 00:09:28;;;;;;;0.60;0.60;;;;;;;5.20;99.62;95937.87;29396;276;63009;-90
2024/04/17 00:10:02;;;;;;;0.60;0.60;;;;;;;5.23;98.50;95933.81;29395;262;64009;-94
2024/04/17 00:10:33;;;;;;;1.85;1.85;;;;;;;5.25;98.09;95935.16;29396;200;63009;-90
2024/04/17 00:11:10;;;;;;;0.60;0.60;;;;;;;5.16;98.13;95931.50;29396;207;63004;-92
2024/04/17 00:11:41;;;;;;;0.60;0.60;;;;;;;5.11;98.57;95928.03;29396;266;63009;-93
2024/04/17 00:12:13;;;;;;;0.60;0.60;;;;;;;4.98;99.80;95927.59;29396;197;63004;-90
2024/04/17 00:12:46;;;;;;;0.60;0.60;;;;;;;4.94;100.00;95928.41;29395;279;64013;-92
2024/04/17 00:13:17;;;;;;;0.60;0.60;;;;;;;4.87;100.00;95936.00;29396;238;63004;-89
2024/04/17 00:13:51;;;;;;;0.60;0.60;;;;;;;4.81;100.00;95939.81;29395;294;64013;-91
2024/04/17 00:14:24;;;;;;;0.60;0.60;;;;;;;4.77;100.00;95933.38;29395;215;63009;-59
2024/04/17 00:14:55;;;;;;;0.60;0.60;;;;;;;4.75;100.00;95932.88;29396;222;63009;-55
2024/04/17 00:15:26;;;;;;;0.60;0.60;;;;;;;4.75;100.00;95928.28;29396;255;63005;-55
2024/04/17 00:16:00;;;;;;;0.60;0.60;;;;;;;4.72;100.00;95926.16;29396;241;63009;-65
2024/04/17 00:16:31;;;;;;;0.60;0.60;;;;;;;4.68;100.00;95938.53;29396;243;63005;-52
2024/04/17 00:17:02;;;;;;;0.60;0.60;;;;;;;4.66;100.00;95938.03;29396;212;63009;-54
2024/04/17 00:17:33;;;;;;;0.60;0.60;;;;;;;4.62;100.00;95935.09;29395;228;64009;-54
2024/04/17 00:18:05;;;;;;;0.60;0.60;;;;;;;4.65;100.00;95931.84;29396;203;63009;-56
2024/04/17 00:18:36;;;;;;;0.60;0.60;;;;;;;4.62;100.00;95935.09;29396;229;63004;-55
2024/04/17 00:19:07;;;;;;;0.60;0.60;;;;;;;4.57;100.00;95935.09;29396;235;63009;-56
2024/04/17 00:19:39;;;;;;;0.60;0.60;;;;;;;4.56;100.00;95933.50;29396;220;63014;-55
2024/04/17 00:20:10;;;;;;;0.55;0.55;;;;;;;4.53;100.00;95934.06;29396;238;63009;-56
2024/04/17 00:20:41;;;;;;;0.60;0.60;;;;;;;4.50;100.00;95929.25;29395;253;64008;-56
2024/04/17 00:21:12;;;;;;;0.60;0.60;;;;;;;4.47;100.00;95929.81;29396;280;63008;-54
2024/04/17 00:21:47;;;;;;;0.60;0.60;;;;;;;4.49;100.00;95924.97;29396;197;63001;-56
2024/04/17 00:22:18;;;;;;;0.60;0.60;;;;;;;4.52;100.00;95926.28;29396;225;63015;-57
2024/04/17 00:22:49;;;;;;;0.60;0.60;;;;;;;4.54;100.00;95926.81;29396;200;63005;-55
2024/04/17 00:23:20;;;;;;;0.60;0.60;;;;;;;4.52;100.00;95932.44;29396;200;63009;-54
2024/04/17 00:23:51;;;;;;;0.60;0.60;;;;;;;4.49;100.00;95924.97;29396;278;63005;-66
2024/04/17 00:24:23;;;;;;;0.60;0.60;;;;;;;4.52;100.00;95932.44;29395;213;64013;-55
2024/04/17 00:24:54;;;;;;;0.60;0.60;;;;;;;4.51;100.00;95930.03;29395;199;64000;-56
2024/04/17 00:25:25;;;;;;;0.60;0.60;;;;;;;4.49;100.00;95932.22;29396;196;63009;-56
2024/04/17 00:25:58;;;;;;;0.60;0.60;;;;;;;4.46;100.00;95928.22;29395;214;64009;-56
2024/04/17 00:26:29;;;;;;;0.60;0.60;;;;;;;4.41;100.00;95930.91;29396;198;63019;-56
2024/04/17 00:27:00;;;;;;;0.60;0.60;;;;;;;4.40;100.00;95929.31;29396;240;63004;-56
2024/04/17 00:27:32;;;;;;;0.60;0.60;;;;;;;4.36;100.00;95929.06;29396;219;63008;-56
2024/04/17 00:28:04;;;;;;;0.60;0.60;;;;;;;4.34;100.00;95925.03;29396;232;63004;-65
2024/04/17 00:28:36;;;;;;;0.60;0.60;;;;;;;4.34;100.00;95930.41;29396;202;63008;-56
2024/04/17 00:29:08;;;;;;;0.60;0.60;;;;;;;4.33;100.00;95926.13;29396;310;63005;-56
2024/04/17 00:29:39;;;;;;;0.60;0.60;;;;;;;4.29;100.00;95928.56;29396;217;63009;-56
2024/04/17 00:30:10;;;;;;;0.60;0.60;;;;;;;4.28;100.00;95926.13;29396;263;63005;-66
2024/04/17 00:30:42;;;;;;;0.60;0.60;;;;;;;4.25;100.00;95922.13;29396;222;63009;-64
2024/04/17 00:31:14;;;;;;;0.60;0.60;;;;;;;4.23;100.00;95929.66;29395;207;64009;-55
2024/04/17 00:31:45;;;;;;;0.60;0.60;;;;;;;4.23;100.00;95923.47;29395;257;64013;-53
2024/04/17 00:32:16;;;;;;;0.60;0.60;;;;;;;4.20;100.00;95927.50;29396;372;63005;-55
2024/04/17 00:32:47;;;;;;;0.60;0.60;;;;;;;4.18;100.00;95928.88;29396;206;63013;-56
2024/04/17 00:33:20;;;;;;;0.60;0.60;;;;;;;4.20;100.00;95934.75;29396;233;63006;-67
2024/04/17 00:33:51;;;;;;;0.60;0.60;;;;;;;4.23;100.00;95931.53;29396;275;63009;-56
2024/04/17 00:34:22;;;;;;;0.60;0.60;;;;;;;4.23;100.00;95923.47;29396;206;63004;-55
2024/04/17 00:34:53;;;;;;;0.60;0.60;;;;;;;4.26;100.00;95922.94;29396;295;63009;-56
2024/04/17 00:35:26;;;;;;;0.60;0.60;;;;;;;4.26;100.00;95933.66;29395;197;64004;-56
2024/04/17 00:35:57;;;;;;;0.60;0.60;;;;;;;4.24;100.00;95922.41;29396;249;63009;-56
2024/04/17 00:36:28;;;;;;;0.60;0.60;;;;;;;4.21;100.00;95926.44;29395;222;64009;-54
2024/04/17 00:36:59;;;;;;;0.60;0.60;;;;;;;4.20;100.00;95924.81;29396;380;63009;-56
2024/04/17 00:37:31;;;;;;;0.60;0.60;;;;;;;4.18;100.00;95926.97;29396;300;63000;-56
2024/04/17 00:38:02;;;;;;;0.60;0.60;;;;;;;4.18;100.00;95926.19;29396;202;63009;-56
2024/04/17 00:38:33;;;;;;;0.60;0.60;;;;;;;4.16;100.00;95928.38;29395;398;64009;-56
2024/04/17 00:39:04;;;;;;;0.60;0.60;;;;;;;4.16;100.00;95926.47;29396;214;63015;-56
2024/04/17 00:39:36;;;;;;;0.60;0.60;;;;;;;4.16;100.00;95928.38;29397;274;63005;-54
2024/04/17 00:40:09;;;;;;;0.60;0.60;;;;;;;4.16;100.00;95933.75;29397;222;63009;-56
2024/04/17 00:40:40;;;;;;;0.60;0.60;;;;;;;4.16;100.00;95931.06;29396;213;64009;-57
2024/04/17 00:41:12;;;;;;;0.60;0.60;;;;;;;4.14;100.00;95925.16;29397;218;63009;-56
2024/04/17 00:41:43;;;;;;;0.50;0.50;;;;;;;4.12;100.00;95922.75;29397;236;63004;-55
2024/04/17 00:42:14;;;;;;;0.60;0.60;;;;;;;4.14;100.00;95925.16;29396;209;64013;-56
2024/04/17 00:42:46;;;;;;;0.60;0.60;;;;;;;4.13;100.00;95923.53;29397;212;63004;-56
2024/04/17 00:43:17;;;;;;;0.60;0.60;;;;;;;4.16;100.00;95925.69;29397;213;63005;-55
2024/04/17 00:43:48;;;;;;;0.52;0.52;;;;;;;4.15;100.00;95921.38;29396;224;64009;-58
2024/04/17 00:44:19;;;;;;;0.60;0.60;;;;;;;4.20;100.00;95926.72;29397;212;63009;-55
2024/04/17 00:44:50;;;;;;;0.60;0.60;;;;;;;4.21;100.00;95925.63;29397;227;63005;-55
2024/04/17 00:45:30;;;;;;;0.60;0.60;;;;;;;4.25;100.00;95921.31;29397;288;63009;-53
2024/04/17 00:46:01;;;;;;;0.60;0.60;;;;;;;4.24;100.00;95919.72;29397;230;63005;-56
2024/04/17 00:46:36;;;;;;;0.50;0.50;;;;;;;4.23;100.00;95915.41;29397;229;63009;-56
2024/04/17 00:47:09;;;;;;;0.60;0.60;;;;;;;4.21;100.00;95920.25;29397;214;63009;-55
2024/04/17 00:47:42;;;;;;;0.60;0.60;;;;;;;4.19;100.00;95919.72;29397;204;63009;-56
2024/04/17 00:48:15;;;;;;;0.60;0.60;;;;;;;4.19;100.00;95922.41;29397;217;63008;-55
2024/04/17 00:48:46;;;;;;;0.60;0.60;;;;;;;4.20;100.00;95918.66;29397;202;63009;-56
2024/04/17 00:49:19;;;;;;;0.60;0.60;;;;;;;4.19;100.00;95917.03;29396;212;64009;-56
2024/04/17 00:49:51;;;;;;;0.50;0.50;;;;;;;4.18;100.00;95915.44;29397;247;63009;-57
2024/04/17 00:50:22;;;;;;;0.60;0.60;;;;;;;4.17;100.00;95913.84;29397;231;63004;-56
2024/04/17 00:50:57;;;;;;;0.60;0.60;;;;;;;4.15;100.00;95916.03;29397;227;63009;-55
2024/04/17 00:51:29;;;;;;;0.60;0.60;;;;;;;4.16;100.00;95913.03;29397;282;63005;-56
2024/04/17 00:52:01;;;;;;;0.60;0.60;;;;;;;4.15;100.00;95914.13;29397;222;63009;-56
2024/04/17 00:52:33;;;;;;;0.60;0.60;;;;;;;4.18;100.00;95915.44;29397;211;63005;-54
2024/04/17 00:53:07;;;;;;;0.60;0.60;;;;;;;4.21;100.00;95914.91;29396;209;63009;-55
2024/04/17 00:53:41;;;;;;;0.60;0.60;;;;;;;4.23;100.00;95912.75;29396;373;63005;-56
2024/04/17 00:54:12;;;;;;;0.60;0.60;;;;;;;4.24;100.00;95919.72;29395;241;64013;-56
2024/04/17 00:54:44;;;;;;;0.60;0.60;;;;;;;4.25;100.00;95915.94;29397;212;63005;-54
2024/04/17 00:55:15;;;;;;;0.60;0.60;;;;;;;4.26;100.00;95917.56;29396;202;63009;-66
2024/04/17 00:55:48;;;;;;;0.60;0.60;;;;;;;4.30;100.00;95914.03;29396;350;63004;-56
2024/04/17 00:56:20;;;;;;;0.60;0.60;;;;;;;4.35;100.00;95918.59;29396;246;63009;-56
2024/04/17 00:56:55;;;;;;;0.60;0.60;;;;;;;4.34;100.00;95914.31;29396;285;63004;-56
2024/04/17 00:57:28;;;;;;;0.60;0.60;;;;;;;4.31;100.00;95921.03;29396;225;63009;-55
2024/04/17 00:58:01;;;;;;;0.60;0.60;;;;;;;4.29;100.00;95917.00;29395;206;64008;-66
2024/04/17 00:58:35;;;;;;;0.60;0.60;;;;;;;4.27;100.00;95908.41;29396;214;63027;-56
2024/04/17 00:59:08;;;;;;;0.60;0.60;;;;;;;4.25;100.00;95919.44;29395;207;64009;-55
2024/04/17 00:59:40;;;;;;;0.60;0.60;;;;;;;4.28;100.00;95910.03;29396;202;63009;-55
2024/04/17 01:00:12;;;;;;;0.60;0.60;;;;;;;4.29;100.00;95911.62;29396;196;63005;-56
2024/04/17 01:00:43;;;;;;;0.60;0.60;;;;;;;4.27;100.00;95911.09;29396;235;63009;-54
2024/04/17 01:01:18;;;;;;;0.60;0.60;;;;;;;4.30;100.00;95918.63;29396;217;63005;-55
2024/04/17 01:01:49;;;;;;;0.60;0.60;;;;;;;4.30;100.00;95918.63;29395;224;64009;-55
2024/04/17 01:02:21;;;;;;;0.60;0.60;;;;;;;4.31;100.00;95922.91;29395;213;64009;-55
2024/04/17 01:02:52;;;;;;;0.60;0.60;;;;;;;4.31;100.00;95914.84;29396;212;63027;-55
2024/04/17 01:03:23;;;;;;;0.60;0.60;;;;;;;4.31;100.00;95918.34;29396;219;63004;-56
2024/04/17 01:03:56;;;;;;;0.60;0.60;;;;;;;4.32;100.00;95916.47;29396;231;63009;-55
2024/04/17 01:04:27;;;;;;;0.60;0.60;;;;;;;4.33;100.00;95913.50;29396;267;63004;-57
2024/04/17 01:04:58;;;;;;;0.60;0.60;;;;;;;4.34;100.00;95914.31;29395;218;64013;-55
2024/04/17 01:05:31;;;;;;;0.60;0.60;;;;;;;4.35;100.00;95910.53;29396;356;63004;-54
2024/04/17 01:06:03;;;;;;;0.52;0.52;;;;;;;4.36;100.00;95918.31;29396;225;63009;-55
2024/04/17 01:06:34;;;;;;;0.60;0.60;;;;;;;4.35;100.00;95918.59;29396;234;63005;-65
2024/04/17 01:07:06;;;;;;;0.60;0.60;;;;;;;4.36;100.00;95922.87;29396;216;63009;-55
2024/04/17 01:07:37;;;;;;;0.60;0.60;;;;;;;4.37;100.00;95924.50;29395;209;64009;-56
2024/04/17 01:08:08;;;;;;;0.60;0.60;;;;;;;4.36;100.00;95920.19;29396;216;63009;-55
2024/04/17 01:08:40;;;;;;;0.60;0.60;;;;;;;4.34;100.00;95925.03;29396;218;63005;-55
2024/04/17 01:09:11;;;;;;;0.57;0.57;;;;;;;4.33;100.00;95918.06;29396;196;63009;-57
2024/04/17 01:09:42;;;;;;;0.52;0.52;;;;;;;4.32;100.00;95924.50;29396;205;63000;-56
2024/04/17 01:10:14;;;;;;;0.60;0.60;;;;;;;4.31;100.00;95915.66;29396;213;63023;-56
2024/04/17 01:10:46;;;;;;;0.60;0.60;;;;;;;4.32;100.00;95913.78;29396;203;63015;-57
2024/04/17 01:11:17;;;;;;;0.60;0.60;;;;;;;4.32;100.00;95916.47;29396;381;63009;-56
2024/04/17 01:11:48;;;;;;;0.60;0.60;;;;;;;4.35;100.00;95918.59;29396;199;63008;-55
2024/04/17 01:12:20;;;;;;;0.60;0.60;;;;;;;4.36;100.00;95917.50;29395;198;64013;-55
2024/04/17 01:12:51;;;;;;;0.60;0.60;;;;;;;4.45;100.00;95915.84;29396;319;63004;-57
2024/04/17 01:13:22;;;;;;;0.60;0.60;;;;;;;4.52;100.00;95916.31;29396;202;63008;-57
2024/04/17 01:13:53;;;;;;;0.60;0.60;;;;;;;4.51;100.00;95914.72;29396;223;63005;-56
2024/04/17 01:14:25;;;;;;;0.60;0.60;;;;;;;4.50;100.00;95913.16;29397;270;63009;-55
2024/04/17 01:14:56;;;;;;;0.60;0.60;;;;;;;4.49;100.00;95918.78;29396;210;63005;-56
2024/04/17 01:15:27;;;;;;;0.60;0.60;;;;;;;4.49;100.00;95916.91;29396;205;63009;-56
2024/04/17 01:15:59;;;;;;;0.60;0.60;;;;;;;4.51;100.00;95903.97;29395;233;64009;-57
2024/04/17 01:16:31;;;;;;;0.60;0.60;;;;;;;4.51;100.00;95912.03;29396;316;63026;-54
2024/04/17 01:17:02;;;;;;;0.60;0.60;;;;;;;4.51;100.00;95912.03;29395;208;64019;-57
2024/04/17 01:17:33;;;;;;;0.60;0.60;;;;;;;4.49;100.00;95908.84;29396;249;63009;-56
2024/04/17 01:18:05;;;;;;;0.50;0.50;;;;;;;4.48;100.00;95909.94;29396;247;63004;-55
2024/04/17 01:18:38;;;;;;;0.60;0.60;;;;;;;4.48;100.00;95909.13;29396;216;63009;-56
2024/04/17 01:19:10;;;;;;;0.60;0.60;;;;;;;4.45;100.00;95913.16;29396;218;63004;-56
2024/04/17 01:19:41;;;;;;;0.60;0.60;;;;;;;4.47;100.00;95905.63;29396;212;63009;-56
2024/04/17 01:20:12;;;;;;;0.50;0.50;;;;;;;4.44;100.00;95908.87;29396;206;63004;-57
2024/04/17 01:20:44;;;;;;;0.60;0.60;;;;;;;4.44;100.00;95911.56;29396;207;63004;-54
2024/04/17 01:21:16;;;;;;;0.60;0.60;;;;;;;4.45;100.00;95905.12;29396;326;63001;-55
2024/04/17 01:21:48;;;;;;;0.60;0.60;;;;;;;4.45;100.00;95915.06;29396;202;63009;-56
2024/04/17 01:22:19;;;;;;;0.60;0.60;;;;;;;4.46;100.00;95905.91;29395;263;64009;-55
2024/04/17 01:22:50;;;;;;;0.60;0.60;;;;;;;4.47;100.00;95908.31;29396;203;63009;-56
2024/04/17 01:23:22;;;;;;;0.60;0.60;;;;;;;4.47;100.00;95912.91;29396;211;63005;-56
2024/04/17 01:23:54;;;;;;;0.60;0.60;;;;;;;4.45;100.00;95910.50;29396;198;63009;-56
2024/04/17 01:24:25;;;;;;;0.60;0.60;;;;;;;4.44;100.00;95905.38;29395;228;64009;-57
2024/04/17 01:24:57;;;;;;;0.60;0.60;;;;;;;4.42;100.00;95905.66;29396;229;63009;-53
2024/04/17 01:25:28;;;;;;;0.60;0.60;;;;;;;4.44;100.00;95919.62;29396;213;63010;-55
2024/04/17 01:25:59;;;;;;;0.60;0.60;;;;;;;4.44;100.00;95913.44;29396;320;63009;-56
2024/04/17 01:26:35;;;;;;;0.60;0.60;;;;;;;4.47;100.00;95912.91;29396;254;63004;-56
2024/04/17 01:27:06;;;;;;;0.60;0.60;;;;;;;4.49;100.00;95916.91;29396;213;63009;-55
2024/04/17 01:27:39;;;;;;;0.60;0.60;;;;;;;4.50;100.00;95915.84;29396;231;63008;-57
2024/04/17 01:28:10;;;;;;;0.60;0.60;;;;;;;4.50;100.00;95917.72;29396;208;63008;-55
2024/04/17 01:28:41;;;;;;;0.60;0.60;;;;;;;4.49;100.00;95911.53;29395;219;64009;-65
2024/04/17 01:29:13;;;;;;;0.60;0.60;;;;;;;4.52;100.00;95927.06;29395;224;64014;-57
2024/04/17 01:29:44;;;;;;;0.60;0.60;;;;;;;4.58;100.00;95917.09;29396;297;63005;-66
2024/04/17 01:30:19;;;;;;;0.60;0.60;;;;;;;4.59;100.00;95911.44;29396;202;63009;-56
2024/04/17 01:30:51;;;;;;;0.60;0.60;;;;;;;4.58;100.00;95917.09;29396;239;63005;-54
2024/04/17 01:31:24;;;;;;;0.60;0.60;;;;;;;4.55;100.00;95915.78;29395;234;64013;-54
2024/04/17 01:31:55;;;;;;;0.60;0.60;;;;;;;4.60;100.00;95915.75;29396;249;63005;-73
2024/04/17 01:32:26;;;;;;;0.60;0.60;;;;;;;4.58;100.00;95906.34;29396;254;63009;-68
2024/04/17 01:32:59;;;;;;;0.60;0.60;;;;;;;4.56;100.00;95913.91;29396;226;63004;-54
2024/04/17 01:33:30;;;;;;;0.60;0.60;;;;;;;4.55;100.00;95910.41;29395;255;64009;-55
2024/04/17 01:34:01;;;;;;;0.60;0.60;;;;;;;4.52;100.00;95915.53;29396;222;63004;-55
2024/04/17 01:34:33;;;;;;;0.60;0.60;;;;;;;4.50;100.00;95912.34;29396;247;63008;-57
2024/04/17 01:35:04;;;;;;;0.60;0.60;;;;;;;4.48;100.00;95909.94;29396;220;63004;-57
2024/04/17 01:35:35;;;;;;;0.57;0.57;;;;;;;4.44;100.00;95902.72;29396;273;63008;-56
2024/04/17 01:36:08;;;;;;;0.60;0.60;;;;;;;4.45;100.00;95918.53;29396;215;63004;-55
2024/04/17 01:36:39;;;;;;;0.60;0.60;;;;;;;4.48;100.00;95909.94;29395;234;64014;-58
2024/04/17 01:37:10;;;;;;;0.60;0.60;;;;;;;4.51;100.00;95906.66;29395;248;64005;-55
2024/04/17 01:37:42;;;;;;;0.60;0.60;;;;;;;4.46;100.00;95906.72;29396;211;63005;-58
2024/04/17 01:38:14;;;;;;;0.60;0.60;;;;;;;4.43;100.00;95903.78;29396;207;63005;-58
2024/04/17 01:38:46;;;;;;;0.60;0.60;;;;;;;4.38;100.00;95907.28;29396;212;63009;-59
2024/04/17 01:39:17;;;;;;;0.50;0.50;;;;;;;4.41;100.00;95903.25;29396;264;63005;-57
2024/04/17 01:39:48;;;;;;;0.60;0.60;;;;;;;4.37;100.00;95911.06;29396;197;63009;-58
2024/04/17 01:40:19;;;;;;;0.60;0.60;;;;;;;4.33;100.00;95907.31;29396;230;63004;-57
2024/04/17 01:40:50;;;;;;;0.60;0.60;;;;;;;4.27;100.00;95905.75;29396;231;63025;-58
2024/04/17 01:41:22;;;;;;;0.60;0.60;;;;;;;4.20;100.00;95905.22;29396;217;63004;-58
2024/04/17 01:41:53;;;;;;;0.60;0.60;;;;;;;4.15;100.00;95911.44;29395;202;64013;-57
2024/04/17 01:42:25;;;;;;;0.60;0.60;;;;;;;4.10;100.00;95907.97;29395;202;64008;-57
2024/04/17 01:42:56;;;;;;;0.60;0.60;;;;;;;4.08;100.00;95905.56;29397;219;63009;-58
2024/04/17 01:43:29;;;;;;;0.60;0.60;;;;;;;4.06;100.00;95904.25;29397;330;63005;-59
2024/04/17 01:44:01;;;;;;;0.70;0.70;;;;;;;4.04;100.00;95905.31;29397;239;63009;-57
2024/04/17 01:44:32;;;;;;;0.60;0.60;;;;;;;4.02;100.00;95902.09;29396;204;63005;-57
2024/04/17 01:45:05;;;;;;;0.60;0.60;;;;;;;4.00;100.00;95898.88;29394;237;64013;-58
2024/04/17 01:45:38;;;;;;;0.60;0.60;;;;;;;3.99;100.00;95902.66;29397;232;63005;-64
2024/04/17 01:46:09;;;;;;;0.60;0.60;;;;;;;3.98;100.00;95901.03;29397;203;63009;-59
2024/04/17 01:46:40;;;;;;;0.60;0.60;;;;;;;4.00;100.00;95898.88;29395;237;63005;-57
2024/04/17 01:47:11;;;;;;;0.60;0.60;;;;;;;4.00;100.00;95898.88;29395;205;63009;-59
2024/04/17 01:47:42;;;;;;;0.60;0.60;;;;;;;3.99;100.00;95908.03;29395;199;63004;-57
2024/04/17 01:48:14;;;;;;;0.60;0.60;;;;;;;3.98;100.00;95895.69;29394;250;64013;-57
2024/04/17 01:48:45;;;;;;;0.60;0.60;;;;;;;3.96;100.00;95905.88;29395;204;63004;-58
2024/04/17 01:49:16;;;;;;;0.60;0.60;;;;;;;3.95;100.00;95906.97;29395;235;63009;-58
2024/04/17 01:49:47;;;;;;;0.60;0.60;;;;;;;3.96;100.00;95905.09;29395;204;63004;-56
2024/04/17 01:50:28;;;;;;;0.60;0.60;;;;;;;3.95;100.00;95898.91;29395;242;63019;-58
2024/04/17 01:51:00;;;;;;;0.60;0.60;;;;;;;3.94;100.00;95905.34;29395;323;63005;-57
2024/04/17 01:51:31;;;;;;;0.60;0.60;;;;;;;3.95;100.00;95895.41;29395;228;63009;-57
2024/04/17 01:52:03;;;;;;;0.60;0.60;;;;;;;3.96;100.00;95905.88;29395;247;63008;-58
2024/04/17 01:52:35;;;;;;;0.60;0.60;;;;;;;3.96;100.00;95897.84;29393;210;64013;-65
2024/04/17 01:53:06;;;;;;;0.60;0.60;;;;;;;3.98;100.00;95906.41;29395;196;63005;-64
2024/04/17 01:53:37;;;;;;;0.60;0.60;;;;;;;3.98;100.00;95906.41;29395;255;63009;-57
2024/04/17 01:54:08;;;;;;;0.60;0.60;;;;;;;3.97;100.00;95902.13;29395;236;63005;-58
2024/04/17 01:54:41;;;;;;;0.60;0.60;;;;;;;3.99;100.00;95901.84;29395;216;63009;-58
2024/04/17 01:55:13;;;;;;;0.60;0.60;;;;;;;3.97;100.00;95904.81;29393;206;64009;-57
2024/04/17 01:55:44;;;;;;;0.60;0.60;;;;;;;3.97;100.00;95904.00;29395;231;63009;-58
2024/04/17 01:56:15;;;;;;;0.60;0.60;;;;;;;3.96;100.00;95905.88;29395;198;63004;-57
2024/04/17 01:56:48;;;;;;;0.60;0.60;;;;;;;3.97;100.00;95901.31;29395;334;63009;-56
2024/04/17 01:57:20;;;;;;;0.60;0.60;;;;;;;3.96;100.00;95900.50;29395;211;63008;-57
2024/04/17 01:57:51;;;;;;;0.60;0.60;;;;;;;3.95;100.00;95906.16;29395;202;63008;-57
2024/04/17 01:58:22;;;;;;;0.60;0.60;;;;;;;3.94;100.00;95899.19;29394;210;64005;-57
2024/04/17 01:58:53;;;;;;;0.60;0.60;;;;;;;3.93;100.00;95903.75;29395;209;63009;-56
2024/04/17 01:59:24;;;;;;;0.60;0.60;;;;;;;3.94;100.00;95899.97;29395;209;63005;-57
2024/04/17 01:59:55;;;;;;;0.60;0.60;;;;;;;3.95;100.00;95901.59;29393;237;64013;-56
2024/04/17 02:00:27;;;;;;;0.60;0.60;;;;;;;3.96;100.00;95905.88;29394;208;64005;-59
2024/04/17 02:01:04;;;;;;;0.60;0.60;;;;;;;3.97;100.00;95898.63;29395;216;63009;-57
2024/04/17 02:01:36;;;;;;;0.60;0.60;;;;;;;3.96;100.00;95897.84;29395;267;63005;-63
2024/04/17 02:02:08;;;;;;;0.60;0.60;;;;;;;3.97;100.00;95899.44;29394;198;64009;-57
2024/04/17 02:02:40;;;;;;;0.60;0.60;;;;;;;3.96;100.00;95905.88;29395;222;63004;-57
2024/04/17 02:03:11;;;;;;;0.60;0.60;;;;;;;3.96;100.00;95902.41;29394;226;63009;-57
2024/04/17 02:03:44;;;;;;;0.60;0.60;;;;;;;3.96;100.00;95908.56;29393;238;64009;-58
2024/04/17 02:04:15;;;;;;;0.60;0.60;;;;;;;3.96;100.00;95908.56;29395;213;63009;-57
2024/04/17 02:04:46;;;;;;;0.60;0.60;;;;;;;3.96;100.00;95908.56;29393;212;64008;-57
2024/04/17 02:05:17;;;;;;;0.60;0.60;;;;;;;3.96;100.00;95900.50;29395;319;63008;-57
2024/04/17 02:05:49;;;;;;;0.60;0.60;;;;;;;3.98;100.00;95906.41;29395;256;63005;-57
2024/04/17 02:06:24;;;;;;;0.60;0.60;;;;;;;4.04;100.00;95899.94;29395;244;63009;-53
2024/04/17 02:06:55;;;;;;;0.60;0.60;;;;;;;4.10;100.00;95906.09;29395;295;63011;-56
2024/04/17 02:07:27;;;;;;;0.60;0.60;;;;;;;4.10;100.00;95899.94;29395;196;63009;-58
2024/04/17 02:07:58;;;;;;;0.60;0.60;;;;;;;4.09;100.00;95906.38;29395;226;63017;-57
2024/04/17 02:08:29;;;;;;;0.60;0.60;;;;;;;4.06;100.00;95907.72;29395;247;63009;-55
2024/04/17 02:09:00;;;;;;;0.60;0.60;;;;;;;4.04;100.00;95910.69;29395;222;63005;-56
2024/04/17 02:09:35;;;;;;;0.60;0.60;;;;;;;4.04;100.00;95905.31;29395;296;63009;-57
2024/04/17 02:10:06;;;;;;;0.60;0.60;;;;;;;4.07;100.00;95903.16;29393;284;64009;-55
2024/04/17 02:10:37;;;;;;;0.60;0.60;;;;;;;4.06;100.00;95901.56;29395;310;63009;-57
2024/04/17 02:11:09;;;;;;;0.60;0.60;;;;;;;4.03;100.00;95909.09;29393;204;64009;-56
2024/04/17 02:11:40;;;;;;;0.70;0.70;;;;;;;4.00;100.00;95898.88;29395;198;63009;-57
2024/04/17 02:12:12;;;;;;;0.60;0.60;;;;;;;4.04;100.00;95904.50;29395;219;63004;-57
2024/04/17 02:12:43;;;;;;;0.60;0.60;;;;;;;4.04;100.00;95899.94;29395;196;63008;-57
2024/04/17 02:13:14;;;;;;;0.60;0.60;;;;;;;4.04;100.00;95905.31;29373;223;63009;-61
2024/04/17 02:13:45;;;;;;;0.60;0.60;;;;;;;4.09;100.00;95895.63;29395;197;63009;-57
2024/04/17 02:14:17;;;;;;;0.60;0.60;;;;;;;4.09;100.00;95911.75;29395;232;63005;-57
2024/04/17 02:14:48;;;;;;;0.60;0.60;;;;;;;4.07;100.00;95903.16;29393;262;64013;-57
2024/04/17 02:15:19;;;;;;;0.60;0.60;;;;;;;4.05;100.00;95911.50;29395;282;63005;-56
2024/04/17 02:15:50;;;;;;;0.60;0.60;;;;;;;4.04;100.00;95907.19;29395;291;63009;-59
2024/04/17 02:16:22;;;;;;;0.50;0.50;;;;;;;4.03;100.00;95903.72;29395;220;63005;-59
2024/04/17 02:16:53;;;;;;;0.60;0.60;;;;;;;4.02;100.00;95907.47;29395;275;63009;-57
2024/04/17 02:17:24;;;;;;;0.60;0.60;;;;;;;4.02;100.00;95902.09;29395;221;63004;-58
2024/04/17 02:17:57;;;;;;;0.60;0.60;;;;;;;4.03;100.00;95903.72;29395;289;63009;-57
2024/04/17 02:18:28;;;;;;;0.98;0.98;;;;;;;4.02;100.00;95910.16;29395;218;63004;-57
2024/04/17 02:18:59;;;;;;;0.60;0.60;;;;;;;4.04;100.00;95904.50;29395;213;63009;-58
2024/04/17 02:19:30;;;;;;;0.60;0.60;;;;;;;4.07;100.00;95911.22;29395;303;63004;-57
2024/04/17 02:20:05;;;;;;;0.60;0.60;;;;;;;4.08;100.00;95910.13;29393;206;64013;-56
2024/04/17 02:20:37;;;;;;;0.60;0.60;;;;;;;4.10;100.00;95910.66;29395;278;63004;-55
2024/04/17 02:21:08;;;;;;;0.60;0.60;;;;;;;4.09;100.00;95906.38;29395;240;63024;-60
2024/04/17 02:21:39;;;;;;;0.60;0.60;;;;;;;4.08;100.00;95908.25;29395;210;63005;-55
2024/04/17 02:22:10;;;;;;;0.60;0.60;;;;;;;4.11;100.00;95909.59;29395;241;63009;-56
2024/04/17 02:22:41;;;;;;;0.60;0.60;;;;;;;4.12;100.00;95905.84;29395;220;63005;-57
2024/04/17 02:23:12;;;;;;;0.60;0.60;;;;;;;4.10;100.00;95907.97;29395;202;63009;-56
2024/04/17 02:23:47;;;;;;;0.60;0.60;;;;;;;4.08;100.00;95910.94;29395;216;63005;-57
2024/04/17 02:24:18;;;;;;;0.60;0.60;;;;;;;4.12;100.00;95900.47;29395;333;63009;-57
2024/04/17 02:24:50;;;;;;;0.60;0.60;;;;;;;4.12;100.00;95903.16;29395;241;63004;-56
2024/04/17 02:25:21;;;;;;;0.60;0.60;;;;;;;4.12;100.00;95900.47;29394;214;64013;-56
2024/04/17 02:25:52;;;;;;;0.60;0.60;;;;;;;4.15;100.00;95905.28;29394;215;63004;-56
2024/04/17 02:26:23;;;;;;;0.60;0.60;;;;;;;4.18;100.00;95907.37;29395;197;63009;-56
2024/04/17 02:26:54;;;;;;;0.60;0.60;;;;;;;4.19;100.00;95909.00;29395;205;63004;-55
2024/04/17 02:27:25;;;;;;;0.65;0.65;;;;;;;4.25;100.00;95908.69;29395;225;63004;-55
2024/04/17 02:28:00;;;;;;;0.60;0.60;;;;;;;4.24;100.00;95908.97;29395;285;63004;-57
2024/04/17 02:28:34;;;;;;;0.60;0.60;;;;;;;4.22;100.00;95908.44;29395;229;63009;-64
2024/04/17 02:29:05;;;;;;;0.60;0.60;;;;;;;4.21;100.00;95906.84;29395;204;63005;-55
2024/04/17 02:29:37;;;;;;;0.60;0.60;;;;;;;4.20;100.00;95910.59;29395;245;63009;-57
2024/04/17 02:30:13;;;;;;;0.52;0.52;;;;;;;4.25;100.00;95910.56;29394;245;64009;-55
2024/04/17 02:30:45;;;;;;;0.60;0.60;;;;;;;4.24;100.00;95909.78;29395;204;63009;-58
2024/04/17 02:31:16;;;;;;;0.60;0.60;;;;;;;4.23;100.00;95907.37;29394;211;64009;-57
2024/04/17 02:31:47;;;;;;;0.60;0.60;;;;;;;4.23;100.00;95907.37;29395;232;63009;-56